METAR Data
IDs: Format: Raw Decoded Include TAF

Data at: 0326 UTC 10 Dec 2022

METAR for:KMRT (Marysville/Union Cnt, OH, US)
Text:KMRT 100315Z AUTO 03007KT 7SM OVC025 04/02 A3016 RMK AO2 T00370022
Temperature: 3.7°C ( 39°F)
Dewpoint: 2.2°C ( 36°F) [RH = 90%]
Pressure (altimeter):30.16 inches Hg (1021.4 mb)
Winds:from the NNE (30 degrees) at 8 MPH (7 knots; 3.6 m/s)
Visibility: 7 sm ( 11 km)
Ceiling:2500 feet AGL
Clouds: overcast cloud deck at 2500 feet AGL
QC Flag:automated observation with no human augmentation